createdAt,value
2022-12-04T00:00:50.624Z,52.39
2022-12-04T00:03:17.392Z,52.13
2022-12-04T00:05:44.015Z,54.76
2022-12-04T00:08:10.951Z,51.62
2022-12-04T00:10:42.543Z,51.58
2022-12-04T00:13:09.134Z,53.14
2022-12-04T00:15:35.666Z,53.01
2022-12-04T00:18:02.134Z,54.02
2022-12-04T00:20:29.031Z,52.14
2022-12-04T00:22:55.579Z,53.13
2022-12-04T00:25:22.110Z,52.98
2022-12-04T00:27:48.643Z,50.95
2022-12-04T00:30:15.219Z,51.69
2022-12-04T00:32:41.842Z,52.01
2022-12-04T00:35:09.787Z,52.90
2022-12-04T00:37:36.322Z,51.90
2022-12-04T00:40:03.157Z,53.59
2022-12-04T00:42:29.793Z,52.61
2022-12-04T00:44:56.336Z,49.87
2022-12-04T00:47:22.966Z,52.30
2022-12-04T00:49:50.259Z,51.89
2022-12-04T00:52:16.955Z,52.46
2022-12-04T00:54:43.613Z,53.48
2022-12-04T00:57:10.231Z,54.40
2022-12-04T00:59:37.793Z,51.69
2022-12-04T01:02:04.577Z,52.14
2022-12-04T01:04:31.364Z,51.43
2022-12-04T01:07:03.226Z,50.37
2022-12-04T01:09:32.555Z,53.06
2022-12-04T01:11:59.273Z,54.42
2022-12-04T01:14:26.698Z,53.32
2022-12-04T01:16:53.447Z,50.97
2022-12-04T01:19:20.324Z,55.80
2022-12-04T01:21:46.885Z,51.22
2022-12-04T01:24:13.486Z,52.72
2022-12-04T01:26:40.334Z,53.46
2022-12-04T01:29:07.165Z,54.53
2022-12-04T01:31:33.820Z,52.93
2022-12-04T01:34:00.490Z,54.48
2022-12-04T01:36:28.428Z,54.96
2022-12-04T01:38:55.913Z,53.76
2022-12-04T01:41:27.471Z,55.13
2022-12-04T01:44:12.799Z,54.71
2022-12-04T01:46:41.391Z,53.49
2022-12-04T01:49:12.692Z,54.84
2022-12-04T01:51:45.198Z,54.87
2022-12-04T01:54:18.506Z,53.13
2022-12-04T01:56:54.593Z,54.20
2022-12-04T01:59:24.389Z,53.13
2022-12-04T02:02:00.202Z,53.28
2022-12-04T02:04:27.054Z,55.95
2022-12-04T02:06:53.585Z,54.40
2022-12-04T02:09:26.721Z,57.31
2022-12-04T02:12:12.706Z,55.51
2022-12-04T02:14:39.307Z,55.38
2022-12-04T02:17:08.941Z,52.08
2022-12-04T02:19:38.464Z,55.18
2022-12-04T02:22:10.826Z,55.68
2022-12-04T02:24:49.975Z,54.64
2022-12-04T02:27:45.471Z,53.20
2022-12-04T02:30:13.664Z,52.01
2022-12-04T02:32:46.295Z,54.99
2022-12-04T02:35:27.798Z,52.54
2022-12-04T02:38:05.177Z,50.14
2022-12-04T02:40:39.166Z,52.57
2022-12-04T02:43:13.830Z,55.68
2022-12-04T02:45:45.016Z,53.06
2022-12-04T02:48:15.565Z,51.90
2022-12-04T02:50:42.208Z,53.34
2022-12-04T02:53:13.970Z,53.10
2022-12-04T02:55:47.455Z,54.61
2022-12-04T02:58:21.978Z,54.18
2022-12-04T03:00:50.329Z,55.35
2022-12-04T03:03:23.361Z,52.91
2022-12-04T03:06:03.229Z,52.38
2022-12-04T03:08:34.951Z,53.70
2022-12-04T03:11:01.901Z,51.79
2022-12-04T03:13:37.641Z,53.75
2022-12-04T03:16:08.809Z,54.27
2022-12-04T03:18:39.950Z,53.54
2022-12-04T03:21:21.146Z,53.19
2022-12-04T03:24:03.002Z,53.60
2022-12-04T03:26:37.156Z,52.61
2022-12-04T03:29:09.473Z,54.83
2022-12-04T03:31:49.024Z,54.37
2022-12-04T03:34:20.472Z,51.16
2022-12-04T03:36:51.194Z,53.56
2022-12-04T03:39:21.936Z,52.28
2022-12-04T03:41:59.939Z,52.78
2022-12-04T03:44:26.369Z,53.92
2022-12-04T03:46:58.644Z,53.74
2022-12-04T03:49:33.181Z,53.42
2022-12-04T03:52:08.818Z,53.77
2022-12-04T03:54:39.902Z,51.39
2022-12-04T03:57:19.914Z,53.74
2022-12-04T03:59:58.857Z,52.69
2022-12-04T04:02:30.751Z,54.95
2022-12-04T04:05:00.213Z,52.57
2022-12-04T04:07:35.562Z,55.69
2022-12-04T04:10:06.326Z,55.36
2022-12-04T04:12:38.027Z,57.03
2022-12-04T04:15:33.283Z,56.18
2022-12-04T04:18:20.306Z,55.46
2022-12-04T04:21:13.450Z,54.55
2022-12-04T04:24:05.262Z,53.87
2022-12-04T04:26:37.258Z,55.71
2022-12-04T04:29:03.876Z,53.98
2022-12-04T04:31:43.720Z,53.80
2022-12-04T04:34:25.823Z,54.45
2022-12-04T04:36:55.722Z,55.59
2022-12-04T04:39:30.876Z,53.33
2022-12-04T04:41:57.366Z,53.06
2022-12-04T04:44:53.232Z,54.25
2022-12-04T04:47:30.472Z,54.12
2022-12-04T04:50:01.822Z,53.66
2022-12-04T04:52:28.866Z,56.78
2022-12-04T04:54:55.809Z,55.24
2022-12-04T04:57:26.847Z,54.74
2022-12-04T04:59:53.811Z,51.46
2022-12-04T05:02:20.872Z,54.17
2022-12-04T05:04:48.499Z,52.46
2022-12-04T05:07:15.070Z,55.77
2022-12-04T05:09:41.699Z,53.82
2022-12-04T05:12:08.617Z,56.88
2022-12-04T05:14:35.148Z,54.18
2022-12-04T05:17:02.233Z,56.73
2022-12-04T05:19:50.912Z,53.40
2022-12-04T05:22:17.842Z,56.03
2022-12-04T05:24:44.329Z,54.59
2022-12-04T05:27:10.859Z,56.15
2022-12-04T05:29:37.731Z,55.58
2022-12-04T05:32:04.760Z,56.18
2022-12-04T05:34:31.279Z,55.90
2022-12-04T05:36:57.926Z,56.28
2022-12-04T05:39:24.465Z,52.33
2022-12-04T05:41:50.953Z,56.01
2022-12-04T05:44:17.532Z,55.49
2022-12-04T05:46:44.098Z,54.50
2022-12-04T05:49:10.702Z,55.69
2022-12-04T05:51:37.234Z,54.42
2022-12-04T05:54:03.900Z,54.40
2022-12-04T05:56:30.407Z,57.01
2022-12-04T05:58:57.761Z,57.93
2022-12-04T06:01:24.713Z,56.93
2022-12-04T06:03:51.444Z,55.50
2022-12-04T06:06:22.690Z,55.25
2022-12-04T06:08:54.117Z,54.88
2022-12-04T06:11:25.802Z,57.86
2022-12-04T06:13:52.446Z,55.54
2022-12-04T06:16:23.512Z,54.39
2022-12-04T06:18:54.573Z,56.35
2022-12-04T06:21:22.687Z,56.10
2022-12-04T06:23:49.468Z,57.18
2022-12-04T06:26:16.432Z,53.43
2022-12-04T06:28:43.434Z,54.37
2022-12-04T06:31:11.851Z,55.11
2022-12-04T06:33:39.086Z,56.04
2022-12-04T06:36:07.802Z,55.13
2022-12-04T06:38:35.022Z,54.14
2022-12-04T06:41:05.662Z,55.52
2022-12-04T06:43:32.251Z,54.86
2022-12-04T06:46:03.351Z,52.80
2022-12-04T06:48:30.128Z,53.36
2022-12-04T06:51:26.290Z,54.58
2022-12-04T06:53:53.587Z,53.44
2022-12-04T06:56:21.711Z,52.19
2022-12-04T06:58:49.848Z,51.62
2022-12-04T07:01:18.261Z,53.95
2022-12-04T07:03:50.965Z,53.98
2022-12-04T07:06:21.253Z,54.19
2022-12-04T07:08:51.690Z,55.03
2022-12-04T07:11:18.520Z,52.54
2022-12-04T07:13:45.242Z,54.12
2022-12-04T07:16:13.759Z,53.62
2022-12-04T07:18:40.404Z,54.27
2022-12-04T07:21:11.616Z,53.47
2022-12-04T07:23:38.485Z,52.92
2022-12-04T07:26:09.153Z,54.43
2022-12-04T07:28:36.230Z,54.35
2022-12-04T07:31:06.696Z,53.94
2022-12-04T07:33:34.226Z,53.92
2022-12-04T07:36:02.640Z,54.18
2022-12-04T07:38:30.050Z,53.37
2022-12-04T07:40:57.209Z,53.38
2022-12-04T07:43:24.043Z,51.45
2022-12-04T07:45:50.830Z,55.75
2022-12-04T07:48:17.724Z,53.58
2022-12-04T07:50:44.284Z,53.46
2022-12-04T07:53:11.213Z,55.76
2022-12-04T07:55:37.941Z,55.71
2022-12-04T07:58:04.509Z,53.74
2022-12-04T08:00:31.131Z,56.79
2022-12-04T08:02:57.649Z,56.87
2022-12-04T08:05:24.528Z,58.47
2022-12-04T08:07:51.198Z,58.95
2022-12-04T08:10:17.981Z,65.42
2022-12-04T08:12:44.535Z,60.33
2022-12-04T08:15:11.286Z,215.38
2022-12-04T08:17:38.003Z,66.24
2022-12-04T08:20:04.929Z,57.95
2022-12-04T08:22:31.412Z,56.96
2022-12-04T08:24:57.905Z,56.56
2022-12-04T08:27:24.443Z,57.44
2022-12-04T08:29:51.061Z,57.18
2022-12-04T08:32:17.665Z,58.54
2022-12-04T08:34:44.476Z,59.24
2022-12-04T08:37:11.095Z,57.81
2022-12-04T08:39:37.829Z,55.38
2022-12-04T08:42:04.332Z,57.09
2022-12-04T08:44:30.801Z,56.82
2022-12-04T08:46:57.326Z,55.09
2022-12-04T08:49:23.860Z,55.75
2022-12-04T08:51:50.866Z,52.23
2022-12-04T08:54:17.391Z,55.73
2022-12-04T08:56:44.618Z,51.54
2022-12-04T08:59:13.302Z,53.25
2022-12-04T09:01:39.992Z,52.84
2022-12-04T09:04:06.617Z,54.68
2022-12-04T09:06:33.305Z,51.27
2022-12-04T09:08:59.827Z,52.79
2022-12-04T09:11:28.674Z,50.22
2022-12-04T09:13:55.842Z,52.66
2022-12-04T09:16:23.788Z,51.03
2022-12-04T09:18:50.789Z,53.76
2022-12-04T09:21:18.537Z,54.01
2022-12-04T09:23:45.167Z,52.25
2022-12-04T09:26:21.618Z,51.86
2022-12-04T09:28:49.137Z,51.89
2022-12-04T09:31:16.576Z,51.68
2022-12-04T09:33:43.187Z,49.80
2022-12-04T09:36:15.920Z,52.43
2022-12-04T09:38:47.441Z,50.30
2022-12-04T09:41:45.433Z,49.66
2022-12-04T09:44:19.612Z,52.48
2022-12-04T09:46:58.185Z,51.80
2022-12-04T09:49:35.254Z,51.17
2022-12-04T09:52:06.549Z,50.50
2022-12-04T09:54:38.628Z,50.69
2022-12-04T09:57:31.255Z,50.46
2022-12-04T09:59:58.319Z,50.15
2022-12-04T10:02:36.886Z,48.57
2022-12-04T10:05:04.895Z,48.86
2022-12-04T10:07:45.870Z,46.53
2022-12-04T10:10:18.385Z,46.61
2022-12-04T10:13:05.580Z,48.62
2022-12-04T10:15:38.288Z,48.62
2022-12-04T10:18:23.257Z,47.77
2022-12-04T10:21:06.539Z,47.16
2022-12-04T10:23:52.025Z,45.21
2022-12-04T10:26:23.191Z,47.35
2022-12-04T10:29:02.389Z,44.41
2022-12-04T10:31:30.465Z,44.99
2022-12-04T10:34:02.768Z,43.17
2022-12-04T10:36:32.774Z,44.14
2022-12-04T10:39:03.695Z,42.54
2022-12-04T10:41:52.047Z,44.61
2022-12-04T10:44:20.015Z,41.83
2022-12-04T10:46:47.144Z,41.68
2022-12-04T10:49:17.717Z,40.97
2022-12-04T10:51:45.509Z,41.44
2022-12-04T10:54:23.287Z,42.04
2022-12-04T10:56:53.933Z,39.81
2022-12-04T10:59:20.807Z,39.96
2022-12-04T11:01:47.924Z,40.57
2022-12-04T11:04:23.918Z,38.61
2022-12-04T11:06:51.998Z,38.73
2022-12-04T11:09:25.398Z,37.28
2022-12-04T11:11:52.472Z,36.88
2022-12-04T11:14:20.825Z,34.50
2022-12-04T11:16:50.239Z,35.41
2022-12-04T11:19:19.341Z,33.30
2022-12-04T11:21:46.248Z,30.93
2022-12-04T11:24:25.173Z,31.58
2022-12-04T11:26:52.429Z,31.43
2022-12-04T11:29:22.544Z,31.16
2022-12-04T11:31:53.549Z,31.83
2022-12-04T11:34:22.480Z,32.28
2022-12-04T11:36:54.446Z,34.06
2022-12-04T11:39:28.985Z,32.71
2022-12-04T11:42:04.514Z,31.32
2022-12-04T11:44:32.988Z,33.10
2022-12-04T11:47:02.712Z,32.34
2022-12-04T11:49:30.627Z,33.22
2022-12-04T11:52:00.112Z,34.05
2022-12-04T11:54:34.376Z,34.19
2022-12-04T11:57:23.999Z,34.32
2022-12-04T11:59:57.180Z,36.46
2022-12-04T12:02:43.029Z,32.02
2022-12-04T12:05:29.797Z,29.55
2022-12-04T12:08:11.785Z,29.95
2022-12-04T12:10:45.012Z,30.83
2022-12-04T12:13:41.856Z,30.48
2022-12-04T12:16:26.113Z,31.76
2022-12-04T12:19:11.319Z,26.99
2022-12-04T12:21:43.897Z,26.21
2022-12-04T12:24:19.545Z,28.94
2022-12-04T12:26:55.300Z,28.51
2022-12-04T12:29:33.522Z,26.82
2022-12-04T12:32:16.137Z,32.24
2022-12-04T12:34:44.378Z,30.33
2022-12-04T12:37:17.933Z,29.40
2022-12-04T12:40:04.703Z,28.01
2022-12-04T12:42:36.861Z,24.48
2022-12-04T12:45:18.739Z,24.20
2022-12-04T12:47:50.639Z,23.33
2022-12-04T12:50:23.680Z,22.13
2022-12-04T12:53:01.381Z,21.09
2022-12-04T12:55:36.469Z,22.28
2022-12-04T12:58:06.053Z,21.72
2022-12-04T13:00:42.820Z,23.48
2022-12-04T13:03:25.452Z,21.55
2022-12-04T13:05:56.260Z,21.21
2022-12-04T13:08:25.503Z,20.97
2022-12-04T13:11:04.075Z,21.18
2022-12-04T13:13:34.386Z,22.34
2022-12-04T13:16:03.705Z,25.00
2022-12-04T13:18:38.879Z,22.79
2022-12-04T13:21:07.257Z,23.58
2022-12-04T13:23:33.766Z,22.60
2022-12-04T13:26:19.063Z,21.80
2022-12-04T13:29:00.343Z,23.82
2022-12-04T13:31:36.012Z,22.28
2022-12-04T13:34:22.545Z,23.30
2022-12-04T13:37:04.352Z,23.80
2022-12-04T13:40:00.043Z,22.72
2022-12-04T13:42:28.949Z,20.83
2022-12-04T13:45:00.930Z,22.52
2022-12-04T13:47:32.054Z,22.17
2022-12-04T13:50:21.869Z,22.75
2022-12-04T13:52:49.791Z,22.04
2022-12-04T13:55:22.729Z,22.43
2022-12-04T13:57:53.226Z,22.43
2022-12-04T14:00:41.881Z,22.61
2022-12-04T14:03:27.648Z,24.44
2022-12-04T14:05:55.163Z,23.04
2022-12-04T14:08:28.845Z,23.51
2022-12-04T14:10:58.203Z,28.20
2022-12-04T14:13:29.658Z,26.86
2022-12-04T14:16:18.317Z,26.78
2022-12-04T14:18:49.652Z,28.95
2022-12-04T14:21:16.232Z,28.69
2022-12-04T14:23:44.053Z,30.86
2022-12-04T14:26:19.517Z,29.69
2022-12-04T14:28:46.090Z,32.11
2022-12-04T14:31:23.548Z,33.36
2022-12-04T14:33:51.731Z,33.76
2022-12-04T14:36:21.424Z,34.85
2022-12-04T14:38:51.835Z,34.56
2022-12-04T14:41:26.264Z,35.69
2022-12-04T14:43:52.993Z,36.68
2022-12-04T14:46:25.730Z,36.42
2022-12-04T14:49:00.518Z,36.97
2022-12-04T14:51:27.023Z,35.62
2022-12-04T14:54:12.615Z,37.78
2022-12-04T14:56:48.406Z,38.77
2022-12-04T14:59:25.183Z,39.19
2022-12-04T15:01:55.177Z,41.11
2022-12-04T15:04:30.279Z,40.31
2022-12-04T15:07:00.388Z,39.76
2022-12-04T15:09:47.136Z,39.19
2022-12-04T15:12:36.939Z,40.22
2022-12-04T15:15:17.463Z,40.32
2022-12-04T15:17:44.157Z,43.40
2022-12-04T15:20:15.688Z,42.53
2022-12-04T15:22:42.804Z,42.52
2022-12-04T15:25:31.452Z,42.22
2022-12-04T15:28:21.516Z,42.75
2022-12-04T15:30:50.595Z,41.19
2022-12-04T15:33:23.214Z,40.74
2022-12-04T15:35:56.133Z,41.36
2022-12-04T15:38:23.149Z,42.81
2022-12-04T15:40:57.399Z,40.99
2022-12-04T15:43:33.239Z,41.92
2022-12-04T15:45:59.913Z,41.67
2022-12-04T15:48:29.621Z,45.21
2022-12-04T15:51:01.477Z,41.15
2022-12-04T15:53:39.341Z,39.71
2022-12-04T15:56:16.714Z,40.56
2022-12-04T15:58:53.745Z,39.49
2022-12-04T16:01:21.089Z,40.06
2022-12-04T16:03:49.883Z,39.45
2022-12-04T16:06:21.232Z,39.27
2022-12-04T16:08:52.889Z,38.52
2022-12-04T16:11:22.533Z,37.94
2022-12-04T16:13:51.024Z,38.01
2022-12-04T16:16:21.421Z,37.62
2022-12-04T16:18:48.509Z,41.15
2022-12-04T16:21:25.063Z,43.37
2022-12-04T16:23:51.596Z,40.49
2022-12-04T16:26:19.301Z,37.59
2022-12-04T16:28:46.216Z,35.96
2022-12-04T16:31:13.904Z,34.91
2022-12-04T16:33:40.614Z,35.84
2022-12-04T16:36:07.575Z,36.29
2022-12-04T16:38:34.210Z,35.66
2022-12-04T16:41:00.811Z,35.15
2022-12-04T16:43:27.390Z,36.46
2022-12-04T16:45:54.919Z,35.77
2022-12-04T16:48:21.453Z,36.74
2022-12-04T16:50:48.121Z,36.56
2022-12-04T16:53:19.528Z,35.08
2022-12-04T16:55:48.019Z,35.51
2022-12-04T16:58:14.649Z,35.61
2022-12-04T17:00:43.800Z,35.80
2022-12-04T17:03:18.893Z,34.32
2022-12-04T17:05:45.411Z,34.24
2022-12-04T17:08:12.018Z,35.38
2022-12-04T17:10:38.687Z,34.09
2022-12-04T17:13:05.220Z,34.37
2022-12-04T17:15:31.881Z,35.49
2022-12-04T17:17:58.420Z,38.04
2022-12-04T17:20:25.103Z,37.97
2022-12-04T17:22:52.079Z,35.31
2022-12-04T17:25:18.748Z,35.05
2022-12-04T17:27:45.501Z,34.13
2022-12-04T17:30:12.541Z,33.94
2022-12-04T17:32:39.305Z,35.12
2022-12-04T17:35:07.130Z,34.77
2022-12-04T17:37:34.801Z,34.55
2022-12-04T17:40:01.711Z,35.28
2022-12-04T17:42:28.455Z,38.77
2022-12-04T17:44:55.415Z,51.05
2022-12-04T17:47:22.471Z,41.06
2022-12-04T17:49:49.082Z,35.54
2022-12-04T17:52:15.830Z,37.23
2022-12-04T17:54:42.363Z,39.12
2022-12-04T17:57:08.896Z,37.51
2022-12-04T17:59:35.493Z,44.04
2022-12-04T18:02:02.176Z,46.23
2022-12-04T18:04:28.755Z,43.15
2022-12-04T18:06:56.464Z,36.94
2022-12-04T18:09:23.332Z,32.96
2022-12-04T18:11:49.856Z,32.14
2022-12-04T18:14:18.124Z,31.42
2022-12-04T18:16:52.838Z,30.29
2022-12-04T18:19:21.112Z,31.17
2022-12-04T18:21:47.763Z,29.83
2022-12-04T18:24:14.697Z,29.22
2022-12-04T18:26:43.078Z,30.66
2022-12-04T18:29:12.036Z,31.57
2022-12-04T18:31:38.815Z,32.36
2022-12-04T18:34:06.612Z,33.65
2022-12-04T18:36:34.233Z,34.98
2022-12-04T18:39:03.458Z,34.54
2022-12-04T18:41:30.312Z,36.07
2022-12-04T18:43:57.940Z,36.29
2022-12-04T18:46:25.260Z,35.28
2022-12-04T18:48:55.824Z,36.61
2022-12-04T18:51:27.330Z,36.07
2022-12-04T18:53:57.379Z,35.81
2022-12-04T18:56:25.142Z,36.22
2022-12-04T18:58:56.918Z,38.79
2022-12-04T19:01:23.550Z,36.77
2022-12-04T19:03:50.191Z,35.79
2022-12-04T19:06:16.764Z,35.74
2022-12-04T19:08:43.762Z,37.96
2022-12-04T19:11:15.324Z,37.44
2022-12-04T19:13:42.715Z,36.57
2022-12-04T19:16:13.580Z,36.94
2022-12-04T19:18:40.365Z,36.85
2022-12-04T19:21:08.229Z,37.24
2022-12-04T19:23:35.327Z,36.36
2022-12-04T19:26:02.164Z,35.72
2022-12-04T19:28:28.756Z,36.49
2022-12-04T19:30:56.035Z,36.36
2022-12-04T19:33:24.219Z,38.23
2022-12-04T19:36:01.972Z,36.88
2022-12-04T19:38:29.519Z,37.26
2022-12-04T19:41:22.811Z,37.27
2022-12-04T19:43:51.159Z,35.56
2022-12-04T19:46:19.521Z,35.40
2022-12-04T19:48:47.425Z,34.69
2022-12-04T19:51:15.271Z,35.44
2022-12-04T19:53:42.959Z,35.86
2022-12-04T19:56:20.257Z,34.13
2022-12-04T19:58:47.535Z,35.06
2022-12-04T20:01:15.522Z,32.78
2022-12-04T20:03:42.821Z,33.01
2022-12-04T20:06:11.319Z,31.97
2022-12-04T20:08:38.441Z,31.66
2022-12-04T20:11:12.641Z,32.37
2022-12-04T20:13:39.812Z,32.35
2022-12-04T20:16:07.773Z,33.18
2022-12-04T20:18:36.122Z,32.91
2022-12-04T20:21:02.828Z,33.46
2022-12-04T20:23:29.815Z,33.37
2022-12-04T20:25:56.596Z,33.58
2022-12-04T20:28:23.189Z,33.62
2022-12-04T20:30:49.910Z,36.24
2022-12-04T20:33:16.584Z,33.14
2022-12-04T20:35:43.118Z,34.44
2022-12-04T20:38:09.673Z,34.75
2022-12-04T20:40:36.479Z,34.18
2022-12-04T20:43:03.241Z,33.78
2022-12-04T20:45:30.294Z,32.65
2022-12-04T20:47:57.358Z,33.24
2022-12-04T20:50:23.983Z,31.97
2022-12-04T20:52:50.699Z,30.25
2022-12-04T20:55:17.549Z,31.74
2022-12-04T20:57:44.190Z,30.40
2022-12-04T21:00:11.124Z,29.00
2022-12-04T21:02:37.889Z,28.51
2022-12-04T21:05:04.587Z,27.98
2022-12-04T21:07:31.206Z,27.85
2022-12-04T21:09:59.064Z,29.03
2022-12-04T21:12:44.372Z,27.87
2022-12-04T21:15:29.641Z,29.09
2022-12-04T21:17:56.190Z,30.12
2022-12-04T21:20:24.281Z,29.89
2022-12-04T21:22:50.784Z,29.41
2022-12-04T21:25:17.681Z,29.98
2022-12-04T21:27:44.300Z,29.96
2022-12-04T21:30:11.108Z,28.57
2022-12-04T21:32:37.656Z,28.83
2022-12-04T21:35:04.372Z,29.11
2022-12-04T21:37:31.282Z,29.55
2022-12-04T21:39:59.459Z,29.49
2022-12-04T21:42:33.041Z,29.28
2022-12-04T21:45:00.764Z,29.48
2022-12-04T21:47:27.622Z,28.81
2022-12-04T21:49:54.770Z,29.90
2022-12-04T21:52:22.122Z,30.21
2022-12-04T21:54:50.169Z,30.56
2022-12-04T21:57:16.839Z,29.18
2022-12-04T21:59:43.452Z,29.85
2022-12-04T22:02:11.149Z,28.98
2022-12-04T22:04:37.859Z,29.83
2022-12-04T22:07:04.684Z,29.82
2022-12-04T22:09:32.068Z,29.22
2022-12-04T22:12:04.237Z,28.79
2022-12-04T22:14:41.430Z,28.97
2022-12-04T22:17:08.028Z,29.28
2022-12-04T22:19:35.684Z,29.27
2022-12-04T22:22:02.419Z,28.55
2022-12-04T22:24:29.507Z,28.59
2022-12-04T22:26:56.728Z,28.56
2022-12-04T22:29:54.593Z,29.57
2022-12-04T22:32:13.870Z,29.24
2022-12-04T22:34:42.248Z,28.01
2022-12-04T22:37:08.885Z,28.30
2022-12-04T22:39:35.621Z,28.81
2022-12-04T22:42:02.351Z,28.77
2022-12-04T22:44:28.893Z,29.57
2022-12-04T22:46:55.675Z,28.41
2022-12-04T22:49:22.299Z,28.24
2022-12-04T22:51:48.898Z,28.56
2022-12-04T22:54:15.532Z,29.14
2022-12-04T22:56:44.143Z,27.59
2022-12-04T22:59:10.707Z,28.04
2022-12-04T23:01:37.263Z,27.79
2022-12-04T23:04:06.495Z,27.15
2022-12-04T23:06:33.977Z,27.41
2022-12-04T23:09:12.284Z,26.25
2022-12-04T23:11:39.619Z,26.32
2022-12-04T23:14:08.430Z,27.31
2022-12-04T23:16:36.341Z,26.51
2022-12-04T23:19:03.218Z,26.59
2022-12-04T23:21:29.955Z,27.16
2022-12-04T23:23:56.806Z,26.13
2022-12-04T23:26:25.710Z,26.56
2022-12-04T23:28:52.316Z,26.76
2022-12-04T23:31:19.146Z,26.52
2022-12-04T23:33:46.016Z,26.69
2022-12-04T23:36:13.454Z,25.48
2022-12-04T23:38:41.249Z,25.74
2022-12-04T23:41:10.763Z,27.05
2022-12-04T23:43:37.830Z,26.69
2022-12-04T23:46:10.594Z,26.99
2022-12-04T23:48:38.623Z,26.36
2022-12-04T23:51:05.265Z,26.95
2022-12-04T23:53:32.164Z,27.70
2022-12-04T23:56:00.100Z,27.92
2022-12-04T23:58:26.814Z,26.29
